sensor_id;sensor_type;location;lat;lon;timestamp;pressure;altitude;pressure_sealevel;temperature;humidity
6853;BME280;3465;42.144;24.722;2023-01-23T00:00:44;145117.06;;;8.80;100.00
6853;BME280;3465;42.144;24.722;2023-01-23T00:03:10;145128.31;;;8.84;100.00
6853;BME280;3465;42.144;24.722;2023-01-23T00:05:35;145139.56;;;8.89;100.00
6853;BME280;3465;42.144;24.722;2023-01-23T00:08:01;145125.81;;;8.83;100.00
6853;BME280;3465;42.144;24.722;2023-01-23T00:10:26;145127.03;;;8.84;100.00
6853;BME280;3465;42.144;24.722;2023-01-23T00:12:52;145133.31;;;8.86;100.00
6853;BME280;3465;42.144;24.722;2023-01-23T00:15:18;145134.53;;;8.87;100.00
6853;BME280;3465;42.144;24.722;2023-01-23T00:17:44;145154.53;;;8.95;100.00
6853;BME280;3465;42.144;24.722;2023-01-23T00:20:11;145102.03;;;8.73;100.00
6853;BME280;3465;42.144;24.722;2023-01-23T00:22:37;145107.03;;;8.76;100.00
6853;BME280;3465;42.144;24.722;2023-01-23T00:25:03;145139.56;;;8.89;100.00
6853;BME280;3465;42.144;24.722;2023-01-23T00:27:29;145150.78;;;8.93;100.00
6853;BME280;3465;42.144;24.722;2023-01-23T00:29:54;145142.03;;;8.90;100.00
6853;BME280;3465;42.144;24.722;2023-01-23T00:32:20;145128.31;;;8.84;100.00
6853;BME280;3465;42.144;24.722;2023-01-23T00:34:46;145119.53;;;8.81;100.00
6853;BME280;3465;42.144;24.722;2023-01-23T00:37:12;145157.06;;;8.96;100.00
6853;BME280;3465;42.144;24.722;2023-01-23T00:39:38;145170.81;;;9.01;100.00
6853;BME280;3465;42.144;24.722;2023-01-23T00:42:04;145167.06;;;9.00;100.00
6853;BME280;3465;42.144;24.722;2023-01-23T00:44:30;145108.31;;;8.76;100.00
6853;BME280;3465;42.144;24.722;2023-01-23T00:46:56;145145.84;;;8.91;100.00
6853;BME280;3465;42.144;24.722;2023-01-23T00:49:22;145155.81;;;8.95;100.00
6853;BME280;3465;42.144;24.722;2023-01-23T00:51:48;145157.06;;;8.96;100.00
6853;BME280;3465;42.144;24.722;2023-01-23T00:54:15;145159.56;;;8.97;100.00
6853;BME280;3465;42.144;24.722;2023-01-23T00:56:40;145128.31;;;8.84;100.00
6853;BME280;3465;42.144;24.722;2023-01-23T00:59:06;145137.06;;;8.88;100.00
6853;BME280;3465;42.144;24.722;2023-01-23T01:01:31;145142.03;;;8.90;100.00
6853;BME280;3465;42.144;24.722;2023-01-23T01:03:58;145153.31;;;8.94;100.00
6853;BME280;3465;42.144;24.722;2023-01-23T01:06:23;145150.78;;;8.93;100.00
6853;BME280;3465;42.144;24.722;2023-01-23T01:08:49;145162.03;;;8.98;100.00
6853;BME280;3465;42.144;24.722;2023-01-23T01:11:15;145147.06;;;8.92;100.00
6853;BME280;3465;42.144;24.722;2023-01-23T01:13:41;145155.81;;;8.95;100.00
6853;BME280;3465;42.144;24.722;2023-01-23T01:16:07;145140.81;;;8.89;100.00
6853;BME280;3465;42.144;24.722;2023-01-23T01:18:33;145140.81;;;8.89;100.00
6853;BME280;3465;42.144;24.722;2023-01-23T01:20:59;145148.31;;;8.92;100.00
6853;BME280;3465;42.144;24.722;2023-01-23T01:23:25;145159.56;;;8.97;100.00
6853;BME280;3465;42.144;24.722;2023-01-23T01:25:51;145165.84;;;8.99;100.00
6853;BME280;3465;42.144;24.722;2023-01-23T01:28:16;145170.81;;;9.01;100.00
6853;BME280;3465;42.144;24.722;2023-01-23T01:30:42;145167.06;;;9.00;100.00
6853;BME280;3465;42.144;24.722;2023-01-23T01:33:07;145163.31;;;8.98;100.00
6853;BME280;3465;42.144;24.722;2023-01-23T01:35:33;145128.31;;;8.84;100.00
6853;BME280;3465;42.144;24.722;2023-01-23T01:37:58;145148.31;;;8.92;100.00
6853;BME280;3465;42.144;24.722;2023-01-23T01:40:28;145130.78;;;8.85;100.00
6853;BME280;3465;42.144;24.722;2023-01-23T01:42:58;145155.81;;;8.95;100.00
6853;BME280;3465;42.144;24.722;2023-01-23T01:48:24;145160.81;;;8.97;100.00
6853;BME280;3465;42.144;24.722;2023-01-23T01:50:51;145142.03;;;8.90;100.00
6853;BME280;3465;42.144;24.722;2023-01-23T01:53:18;145164.56;;;8.99;100.00
6853;BME280;3465;42.144;24.722;2023-01-23T01:55:44;145170.81;;;9.01;100.00
6853;BME280;3465;42.144;24.722;2023-01-23T01:58:10;145154.53;;;8.95;100.00
6853;BME280;3465;42.144;24.722;2023-01-23T02:00:36;145105.81;;;8.75;100.00
6853;BME280;3465;42.144;24.722;2023-01-23T02:03:02;145108.31;;;8.76;100.00
6853;BME280;3465;42.144;24.722;2023-01-23T02:05:35;145147.06;;;8.92;100.00
6853;BME280;3465;42.144;24.722;2023-01-23T02:08:06;145152.06;;;8.94;100.00
6853;BME280;3465;42.144;24.722;2023-01-23T02:10:35;145154.53;;;8.95;100.00
6853;BME280;3465;42.144;24.722;2023-01-23T02:13:37;145140.81;;;8.89;100.00
6853;BME280;3465;42.144;24.722;2023-01-23T02:16:13;145143.28;;;8.90;100.00
6853;BME280;3465;42.144;24.722;2023-01-23T02:18:42;145008.31;;;8.36;100.00
6853;BME280;3465;42.144;24.722;2023-01-23T02:21:10;145157.06;;;8.96;100.00
6853;BME280;3465;42.144;24.722;2023-01-23T02:24:00;145153.31;;;8.94;100.00
6853;BME280;3465;42.144;24.722;2023-01-23T02:26:34;145114.53;;;8.79;100.00
6853;BME280;3465;42.144;24.722;2023-01-23T02:29:03;145140.81;;;8.89;100.00
6853;BME280;3465;42.144;24.722;2023-01-23T02:31:28;145138.28;;;8.88;100.00
6853;BME280;3465;42.144;24.722;2023-01-23T02:33:56;145137.06;;;8.88;100.00
6853;BME280;3465;42.144;24.722;2023-01-23T02:36:25;145114.53;;;8.79;100.00
6853;BME280;3465;42.144;24.722;2023-01-23T02:39:02;145138.28;;;8.88;100.00
6853;BME280;3465;42.144;24.722;2023-01-23T02:41:31;145129.56;;;8.85;100.00
6853;BME280;3465;42.144;24.722;2023-01-23T02:44:00;145142.03;;;8.90;100.00
6853;BME280;3465;42.144;24.722;2023-01-23T02:46:26;145148.31;;;8.92;100.00
6853;BME280;3465;42.144;24.722;2023-01-23T02:48:52;145125.81;;;8.83;100.00
6853;BME280;3465;42.144;24.722;2023-01-23T02:51:19;145068.28;;;8.60;100.00
6853;BME280;3465;42.144;24.722;2023-01-23T02:53:46;145139.56;;;8.89;100.00
6853;BME280;3465;42.144;24.722;2023-01-23T02:56:11;145157.06;;;8.96;100.00
6853;BME280;3465;42.144;24.722;2023-01-23T02:58:36;145160.81;;;8.97;100.00
6853;BME280;3465;42.144;24.722;2023-01-23T03:01:21;145153.31;;;8.94;100.00
6853;BME280;3465;42.144;24.722;2023-01-23T03:03:48;145118.28;;;8.80;100.00
6853;BME280;3465;42.144;24.722;2023-01-23T03:06:15;145129.56;;;8.85;100.00
6853;BME280;3465;42.144;24.722;2023-01-23T03:08:41;145152.06;;;8.94;100.00
6853;BME280;3465;42.144;24.722;2023-01-23T03:11:12;145165.84;;;8.99;100.00
6853;BME280;3465;42.144;24.722;2023-01-23T03:13:38;145152.06;;;8.94;100.00
6853;BME280;3465;42.144;24.722;2023-01-23T03:16:04;145148.31;;;8.92;100.00
6853;BME280;3465;42.144;24.722;2023-01-23T03:18:31;145148.31;;;8.92;100.00
6853;BME280;3465;42.144;24.722;2023-01-23T03:21:01;145128.31;;;8.84;100.00
6853;BME280;3465;42.144;24.722;2023-01-23T03:23:27;145148.31;;;8.92;100.00
6853;BME280;3465;42.144;24.722;2023-01-23T03:25:52;145102.03;;;8.73;100.00
6853;BME280;3465;42.144;24.722;2023-01-23T03:28:26;145143.28;;;8.90;100.00
6853;BME280;3465;42.144;24.722;2023-01-23T03:31:11;145088.31;;;8.68;100.00
6853;BME280;3465;42.144;24.722;2023-01-23T03:33:38;145128.31;;;8.84;100.00
6853;BME280;3465;42.144;24.722;2023-01-23T03:36:11;145100.81;;;8.73;100.00
6853;BME280;3465;42.144;24.722;2023-01-23T03:38:37;145120.81;;;8.81;100.00
6853;BME280;3465;42.144;24.722;2023-01-23T03:41:03;145108.31;;;8.76;100.00
6853;BME280;3465;42.144;24.722;2023-01-23T03:43:47;145114.53;;;8.79;100.00
6853;BME280;3465;42.144;24.722;2023-01-23T03:46:13;145115.78;;;8.79;100.00
6853;BME280;3465;42.144;24.722;2023-01-23T03:48:38;145120.81;;;8.81;100.00
6853;BME280;3465;42.144;24.722;2023-01-23T03:51:04;145114.53;;;8.79;100.00
6853;BME280;3465;42.144;24.722;2023-01-23T03:53:30;145095.78;;;8.71;100.00
6853;BME280;3465;42.144;24.722;2023-01-23T03:55:56;145100.81;;;8.73;100.00
6853;BME280;3465;42.144;24.722;2023-01-23T03:58:21;145095.78;;;8.71;100.00
6853;BME280;3465;42.144;24.722;2023-01-23T04:00:47;145078.28;;;8.64;100.00
6853;BME280;3465;42.144;24.722;2023-01-23T04:03:12;145059.53;;;8.56;100.00
6853;BME280;3465;42.144;24.722;2023-01-23T04:05:37;145054.53;;;8.54;100.00
6853;BME280;3465;42.144;24.722;2023-01-23T04:08:03;145058.28;;;8.56;100.00
6853;BME280;3465;42.144;24.722;2023-01-23T04:10:28;145063.28;;;8.58;100.00
6853;BME280;3465;42.144;24.722;2023-01-23T04:12:54;145053.31;;;8.54;100.00
6853;BME280;3465;42.144;24.722;2023-01-23T04:15:19;145050.78;;;8.53;100.00
6853;BME280;3465;42.144;24.722;2023-01-23T04:17:45;145057.06;;;8.55;100.00
6853;BME280;3465;42.144;24.722;2023-01-23T04:20:11;145065.81;;;8.59;100.00
6853;BME280;3465;42.144;24.722;2023-01-23T04:22:36;145048.28;;;8.52;100.00
6853;BME280;3465;42.144;24.722;2023-01-23T04:25:02;145018.28;;;8.40;100.00
6853;BME280;3465;42.144;24.722;2023-01-23T04:27:27;145018.28;;;8.40;100.00
6853;BME280;3465;42.144;24.722;2023-01-23T04:29:53;145015.78;;;8.39;100.00
6853;BME280;3465;42.144;24.722;2023-01-23T04:32:18;145000.81;;;8.33;100.00
6853;BME280;3465;42.144;24.722;2023-01-23T04:34:43;145005.81;;;8.35;100.00
6853;BME280;3465;42.144;24.722;2023-01-23T04:37:09;144990.78;;;8.29;100.00
6853;BME280;3465;42.144;24.722;2023-01-23T04:39:34;144960.78;;;8.17;100.00
6853;BME280;3465;42.144;24.722;2023-01-23T04:42:00;144988.31;;;8.28;100.00
6853;BME280;3465;42.144;24.722;2023-01-23T04:44:25;144994.53;;;8.30;100.00
6853;BME280;3465;42.144;24.722;2023-01-23T04:46:52;144983.28;;;8.26;100.00
6853;BME280;3465;42.144;24.722;2023-01-23T04:49:22;145005.81;;;8.35;100.00
6853;BME280;3465;42.144;24.722;2023-01-23T04:51:48;144989.56;;;8.28;100.00
6853;BME280;3465;42.144;24.722;2023-01-23T04:54:14;144995.78;;;8.31;100.00
6853;BME280;3465;42.144;24.722;2023-01-23T04:56:40;144990.78;;;8.29;100.00
6853;BME280;3465;42.144;24.722;2023-01-23T04:59:05;144997.06;;;8.31;100.00
6853;BME280;3465;42.144;24.722;2023-01-23T05:01:31;144980.81;;;8.25;100.00
6853;BME280;3465;42.144;24.722;2023-01-23T05:03:57;144970.75;;;8.21;100.00
6853;BME280;3465;42.144;24.722;2023-01-23T05:06:22;144963.25;;;8.18;100.00
6853;BME280;3465;42.144;24.722;2023-01-23T05:08:48;144955.75;;;8.15;100.00
6853;BME280;3465;42.144;24.722;2023-01-23T05:11:13;144959.50;;;8.16;100.00
6853;BME280;3465;42.144;24.722;2023-01-23T05:13:39;144955.75;;;8.15;100.00
6853;BME280;3465;42.144;24.722;2023-01-23T05:16:04;144968.25;;;8.20;100.00
6853;BME280;3465;42.144;24.722;2023-01-23T05:18:30;144961.97;;;8.17;100.00
6853;BME280;3465;42.144;24.722;2023-01-23T05:20:55;144940.78;;;8.09;100.00
6853;BME280;3465;42.144;24.722;2023-01-23T05:23:21;144950.75;;;8.13;100.00
6853;BME280;3465;42.144;24.722;2023-01-23T05:25:46;144955.75;;;8.15;100.00
6853;BME280;3465;42.144;24.722;2023-01-23T05:28:12;144945.78;;;8.11;100.00
6853;BME280;3465;42.144;24.722;2023-01-23T05:30:37;144948.25;;;8.12;100.00
6853;BME280;3465;42.144;24.722;2023-01-23T05:33:03;144922.00;;;8.01;100.00
6853;BME280;3465;42.144;24.722;2023-01-23T05:35:28;144924.53;;;8.02;100.00
6853;BME280;3465;42.144;24.722;2023-01-23T05:37:54;144928.28;;;8.04;100.00
6853;BME280;3465;42.144;24.722;2023-01-23T05:40:20;144939.50;;;8.08;100.00
6853;BME280;3465;42.144;24.722;2023-01-23T05:42:46;144914.50;;;7.98;100.00
6853;BME280;3465;42.144;24.722;2023-01-23T05:45:12;144918.25;;;8.00;100.00
6853;BME280;3465;42.144;24.722;2023-01-23T05:47:37;144885.81;;;7.87;100.00
6853;BME280;3465;42.144;24.722;2023-01-23T05:50:04;144929.53;;;8.04;100.00
6853;BME280;3465;42.144;24.722;2023-01-23T05:52:30;144935.75;;;8.07;100.00
6853;BME280;3465;42.144;24.722;2023-01-23T05:54:55;144937.03;;;8.07;100.00
6853;BME280;3465;42.144;24.722;2023-01-23T05:57:21;144937.03;;;8.07;100.00
6853;BME280;3465;42.144;24.722;2023-01-23T05:59:47;144937.03;;;8.07;100.00
6853;BME280;3465;42.144;24.722;2023-01-23T06:02:12;144914.50;;;7.98;100.00
6853;BME280;3465;42.144;24.722;2023-01-23T06:04:38;144900.78;;;7.93;100.00
6853;BME280;3465;42.144;24.722;2023-01-23T06:07:03;144912.03;;;7.97;100.00
6853;BME280;3465;42.144;24.722;2023-01-23T06:09:29;144922.00;;;8.01;100.00
6853;BME280;3465;42.144;24.722;2023-01-23T06:11:54;144824.59;;;7.62;100.00
6853;BME280;3465;42.144;24.722;2023-01-23T06:14:19;144922.00;;;8.01;100.00
6853;BME280;3465;42.144;24.722;2023-01-23T06:16:45;144903.28;;;7.94;100.00
6853;BME280;3465;42.144;24.722;2023-01-23T06:19:11;144922.00;;;8.01;100.00
6853;BME280;3465;42.144;24.722;2023-01-23T06:21:37;144919.53;;;8.00;100.00
6853;BME280;3465;42.144;24.722;2023-01-23T06:24:02;144928.28;;;8.04;100.00
6853;BME280;3465;42.144;24.722;2023-01-23T06:26:28;144898.25;;;7.92;100.00
6853;BME280;3465;42.144;24.722;2023-01-23T06:28:53;144919.53;;;8.00;100.00
6853;BME280;3465;42.144;24.722;2023-01-23T06:31:19;144908.28;;;7.96;100.00
6853;BME280;3465;42.144;24.722;2023-01-23T06:33:48;144893.31;;;7.90;100.00
6853;BME280;3465;42.144;24.722;2023-01-23T06:36:15;144850.78;;;7.73;100.00
6853;BME280;3465;42.144;24.722;2023-01-23T06:38:40;144920.78;;;8.01;100.00
6853;BME280;3465;42.144;24.722;2023-01-23T06:41:07;144924.53;;;8.02;100.00
6853;BME280;3465;42.144;24.722;2023-01-23T06:43:32;144909.56;;;7.96;100.00
6853;BME280;3465;42.144;24.722;2023-01-23T06:45:58;144910.75;;;7.97;100.00
6853;BME280;3465;42.144;24.722;2023-01-23T06:48:23;144878.28;;;7.84;100.00
6853;BME280;3465;42.144;24.722;2023-01-23T06:50:49;144924.53;;;8.02;100.00
6853;BME280;3465;42.144;24.722;2023-01-23T06:53:15;144865.81;;;7.79;100.00
6853;BME280;3465;42.144;24.722;2023-01-23T06:55:41;144885.81;;;7.87;100.00
6853;BME280;3465;42.144;24.722;2023-01-23T06:58:06;144913.28;;;7.98;100.00
6853;BME280;3465;42.144;24.722;2023-01-23T07:00:32;144920.78;;;8.01;100.00
6853;BME280;3465;42.144;24.722;2023-01-23T07:03:00;144898.25;;;7.92;100.00
6853;BME280;3465;42.144;24.722;2023-01-23T07:05:31;144933.28;;;8.06;100.00
6853;BME280;3465;42.144;24.722;2023-01-23T07:07:59;144915.78;;;7.99;100.00
6853;BME280;3465;42.144;24.722;2023-01-23T07:10:25;144922.00;;;8.01;100.00
6853;BME280;3465;42.144;24.722;2023-01-23T07:12:50;144924.53;;;8.02;100.00
6853;BME280;3465;42.144;24.722;2023-01-23T07:15:16;144925.78;;;8.03;100.00
6853;BME280;3465;42.144;24.722;2023-01-23T07:17:41;144934.50;;;8.06;100.00
6853;BME280;3465;42.144;24.722;2023-01-23T07:20:08;144908.28;;;7.96;100.00
6853;BME280;3465;42.144;24.722;2023-01-23T07:22:33;144945.78;;;8.11;100.00
6853;BME280;3465;42.144;24.722;2023-01-23T07:24:59;144938.25;;;8.08;100.00
6853;BME280;3465;42.144;24.722;2023-01-23T07:27:24;144935.75;;;8.07;100.00
6853;BME280;3465;42.144;24.722;2023-01-23T07:29:50;144937.03;;;8.07;100.00
6853;BME280;3465;42.144;24.722;2023-01-23T07:32:15;144933.28;;;8.06;100.00
6853;BME280;3465;42.144;24.722;2023-01-23T07:34:41;144940.78;;;8.09;100.00
6853;BME280;3465;42.144;24.722;2023-01-23T07:37:07;144893.31;;;7.90;100.00
6853;BME280;3465;42.144;24.722;2023-01-23T07:39:32;144925.78;;;8.03;100.00
6853;BME280;3465;42.144;24.722;2023-01-23T07:41:58;144920.78;;;8.01;100.00
6853;BME280;3465;42.144;24.722;2023-01-23T07:44:23;144933.28;;;8.06;100.00
6853;BME280;3465;42.144;24.722;2023-01-23T07:46:48;144904.53;;;7.94;100.00
6853;BME280;3465;42.144;24.722;2023-01-23T07:49:14;144947.00;;;8.11;100.00
6853;BME280;3465;42.144;24.722;2023-01-23T07:51:40;144913.28;;;7.98;100.00
6853;BME280;3465;42.144;24.722;2023-01-23T07:54:05;144943.25;;;8.10;100.00
6853;BME280;3465;42.144;24.722;2023-01-23T07:56:31;144979.53;;;8.24;100.00
6853;BME280;3465;42.144;24.722;2023-01-23T07:58:59;144975.81;;;8.23;100.00
6853;BME280;3465;42.144;24.722;2023-01-23T08:01:25;144998.28;;;8.32;100.00
6853;BME280;3465;42.144;24.722;2023-01-23T08:03:52;144985.81;;;8.27;100.00
6853;BME280;3465;42.144;24.722;2023-01-23T08:06:17;145007.03;;;8.35;100.00
6853;BME280;3465;42.144;24.722;2023-01-23T08:08:43;145000.81;;;8.33;100.00
6853;BME280;3465;42.144;24.722;2023-01-23T08:11:09;145009.56;;;8.36;100.00
6853;BME280;3465;42.144;24.722;2023-01-23T08:13:36;145012.03;;;8.37;100.00
6853;BME280;3465;42.144;24.722;2023-01-23T08:16:02;145027.03;;;8.43;100.00
6853;BME280;3465;42.144;24.722;2023-01-23T08:18:28;145009.56;;;8.36;100.00
6853;BME280;3465;42.144;24.722;2023-01-23T08:20:56;145029.56;;;8.44;100.00
6853;BME280;3465;42.144;24.722;2023-01-23T08:23:26;145008.31;;;8.36;100.00
6853;BME280;3465;42.144;24.722;2023-01-23T08:25:53;145009.56;;;8.36;100.00
6853;BME280;3465;42.144;24.722;2023-01-23T08:28:20;145000.81;;;8.33;100.00
6853;BME280;3465;42.144;24.722;2023-01-23T08:30:45;145007.03;;;8.35;100.00
6853;BME280;3465;42.144;24.722;2023-01-23T08:33:11;144988.31;;;8.28;100.00
6853;BME280;3465;42.144;24.722;2023-01-23T08:35:36;145030.78;;;8.45;100.00
6853;BME280;3465;42.144;24.722;2023-01-23T08:38:02;145024.53;;;8.42;100.00
6853;BME280;3465;42.144;24.722;2023-01-23T08:40:28;145014.53;;;8.38;100.00
6853;BME280;3465;42.144;24.722;2023-01-23T08:42:54;145015.78;;;8.39;100.00
6853;BME280;3465;42.144;24.722;2023-01-23T08:45:19;145010.78;;;8.37;100.00
6853;BME280;3465;42.144;24.722;2023-01-23T08:47:46;145007.03;;;8.35;100.00
6853;BME280;3465;42.144;24.722;2023-01-23T08:50:12;145009.56;;;8.36;100.00
6853;BME280;3465;42.144;24.722;2023-01-23T08:52:37;145022.03;;;8.41;100.00
6853;BME280;3465;42.144;24.722;2023-01-23T08:55:03;145012.03;;;8.37;100.00
6853;BME280;3465;42.144;24.722;2023-01-23T08:57:29;145015.78;;;8.39;100.00
6853;BME280;3465;42.144;24.722;2023-01-23T08:59:54;145008.31;;;8.36;100.00
6853;BME280;3465;42.144;24.722;2023-01-23T09:02:20;144995.78;;;8.31;100.00
6853;BME280;3465;42.144;24.722;2023-01-23T09:04:46;145018.28;;;8.40;100.00
6853;BME280;3465;42.144;24.722;2023-01-23T09:07:11;145038.28;;;8.48;100.00
6853;BME280;3465;42.144;24.722;2023-01-23T09:09:37;145039.53;;;8.48;100.00
6853;BME280;3465;42.144;24.722;2023-01-23T09:12:02;145037.06;;;8.47;100.00
6853;BME280;3465;42.144;24.722;2023-01-23T09:14:28;144997.06;;;8.31;100.00
6853;BME280;3465;42.144;24.722;2023-01-23T09:16:53;145003.28;;;8.34;100.00
6853;BME280;3465;42.144;24.722;2023-01-23T09:19:19;145053.31;;;8.54;100.00
6853;BME280;3465;42.144;24.722;2023-01-23T09:21:44;145060.81;;;8.57;100.00
6853;BME280;3465;42.144;24.722;2023-01-23T09:24:09;145075.78;;;8.63;100.00
6853;BME280;3465;42.144;24.722;2023-01-23T09:26:35;145063.28;;;8.58;100.00
6853;BME280;3465;42.144;24.722;2023-01-23T09:29:00;145079.53;;;8.64;100.00
6853;BME280;3465;42.144;24.722;2023-01-23T09:31:26;145074.53;;;8.62;100.00
6853;BME280;3465;42.144;24.722;2023-01-23T09:33:51;145104.56;;;8.75;100.00
6853;BME280;3465;42.144;24.722;2023-01-23T09:36:16;145087.03;;;8.67;100.00
6853;BME280;3465;42.144;24.722;2023-01-23T09:38:42;145073.31;;;8.62;100.00
6853;BME280;3465;42.144;24.722;2023-01-23T09:41:13;145070.78;;;8.61;100.00
6853;BME280;3465;42.144;24.722;2023-01-23T09:44:01;145062.00;;;8.57;100.00
6853;BME280;3465;42.144;24.722;2023-01-23T09:46:38;145063.28;;;8.58;100.00
6853;BME280;3465;42.144;24.722;2023-01-23T09:52:03;145070.78;;;8.61;100.00
6853;BME280;3465;42.144;24.722;2023-01-23T09:54:43;145075.78;;;8.63;100.00
6853;BME280;3465;42.144;24.722;2023-01-23T10:00:35;145093.31;;;8.70;100.00
6853;BME280;3465;42.144;24.722;2023-01-23T10:03:02;145088.31;;;8.68;100.00
6853;BME280;3465;42.144;24.722;2023-01-23T10:06:32;145092.03;;;8.69;100.00
6853;BME280;3465;42.144;24.722;2023-01-23T10:22:03;145133.31;;;8.86;100.00
6853;BME280;3465;42.144;24.722;2023-01-23T10:27:22;145144.56;;;8.91;100.00
6853;BME280;3465;42.144;24.722;2023-01-23T10:29:56;145123.28;;;8.82;100.00
6853;BME280;3465;42.144;24.722;2023-01-23T10:32:26;145115.78;;;8.79;100.00
6853;BME280;3465;42.144;24.722;2023-01-23T10:35:35;145125.81;;;8.83;100.00
6853;BME280;3465;42.144;24.722;2023-01-23T10:40:59;145113.31;;;8.78;100.00
6853;BME280;3465;42.144;24.722;2023-01-23T10:43:46;145104.56;;;8.75;100.00
6853;BME280;3465;42.144;24.722;2023-01-23T10:46:28;145105.81;;;8.75;100.00
6853;BME280;3465;42.144;24.722;2023-01-23T10:48:54;145115.78;;;8.79;100.00
6853;BME280;3465;42.144;24.722;2023-01-23T10:56:50;145035.78;;;8.47;100.00
6853;BME280;3465;42.144;24.722;2023-01-23T10:59:25;145149.59;;;8.93;100.00
6853;BME280;3465;42.144;24.722;2023-01-23T11:04:42;145170.81;;;9.01;100.00
6853;BME280;3465;42.144;24.722;2023-01-23T11:09:55;145140.81;;;8.89;100.00
6853;BME280;3465;42.144;24.722;2023-01-23T11:12:31;145138.28;;;8.88;100.00
6853;BME280;3465;42.144;24.722;2023-01-23T11:17:41;145123.28;;;8.82;100.00
6853;BME280;3465;42.144;24.722;2023-01-23T11:20:53;145120.81;;;8.81;100.00
6853;BME280;3465;42.144;24.722;2023-01-23T11:30:52;145117.06;;;8.80;100.00
6853;BME280;3465;42.144;24.722;2023-01-23T11:38:54;145059.53;;;8.56;100.00
6853;BME280;3465;42.144;24.722;2023-01-23T11:41:27;145107.03;;;8.76;100.00
6853;BME280;3465;42.144;24.722;2023-01-23T11:43:54;145055.78;;;8.55;100.00
6853;BME280;3465;42.144;24.722;2023-01-23T11:52:23;145132.06;;;8.86;100.00
6853;BME280;3465;42.144;24.722;2023-01-23T12:08:49;145102.03;;;8.73;100.00
6853;BME280;3465;42.144;24.722;2023-01-23T12:11:21;145095.78;;;8.71;100.00
6853;BME280;3465;42.144;24.722;2023-01-23T12:19:33;145112.06;;;8.78;100.00
6853;BME280;3465;42.144;24.722;2023-01-23T12:24:49;145124.56;;;8.83;100.00
6853;BME280;3465;42.144;24.722;2023-01-23T12:30:16;145125.81;;;8.83;100.00
6853;BME280;3465;42.144;24.722;2023-01-23T12:35:54;145063.28;;;8.58;100.00
6853;BME280;3465;42.144;24.722;2023-01-23T12:38:36;145075.78;;;8.63;100.00
6853;BME280;3465;42.144;24.722;2023-01-23T12:43:49;145042.00;;;8.49;100.00
6853;BME280;3465;42.144;24.722;2023-01-23T12:46:25;145039.53;;;8.48;100.00
6853;BME280;3465;42.144;24.722;2023-01-23T12:49:01;145033.31;;;8.46;100.00
6853;BME280;3465;42.144;24.722;2023-01-23T12:51:33;145012.03;;;8.37;100.00
6853;BME280;3465;42.144;24.722;2023-01-23T12:54:03;145007.03;;;8.35;100.00
6853;BME280;3465;42.144;24.722;2023-01-23T12:56:35;144984.56;;;8.26;100.00
6853;BME280;3465;42.144;24.722;2023-01-23T12:59:53;144954.50;;;8.14;100.00
6853;BME280;3465;42.144;24.722;2023-01-23T13:13:40;144848.31;;;7.72;100.00
6853;BME280;3465;42.144;24.722;2023-01-23T13:16:14;144842.06;;;7.69;100.00
6853;BME280;3465;42.144;24.722;2023-01-23T13:18:40;144844.56;;;7.70;100.00
6853;BME280;3465;42.144;24.722;2023-01-23T13:21:34;144830.81;;;7.65;100.00
6853;BME280;3465;42.144;24.722;2023-01-23T13:24:45;144829.59;;;7.64;100.00
6853;BME280;3465;42.144;24.722;2023-01-23T13:32:47;144830.81;;;7.65;100.00
6853;BME280;3465;42.144;24.722;2023-01-23T13:52:16;144837.09;;;7.67;100.00
6853;BME280;3465;42.144;24.722;2023-01-23T13:55:03;144829.59;;;7.64;100.00
6853;BME280;3465;42.144;24.722;2023-01-23T13:57:56;144793.38;;;7.50;100.00
6853;BME280;3465;42.144;24.722;2023-01-23T14:00:22;144718.41;;;7.19;100.00
6853;BME280;3465;42.144;24.722;2023-01-23T14:05:39;144822.06;;;7.61;100.00
6853;BME280;3465;42.144;24.722;2023-01-23T14:08:15;144828.34;;;7.64;100.00
6853;BME280;3465;42.144;24.722;2023-01-23T14:10:44;144834.56;;;7.66;100.00
6853;BME280;3465;42.144;24.722;2023-01-23T14:13:15;144843.31;;;7.70;100.00
6853;BME280;3465;42.144;24.722;2023-01-23T14:15:46;144818.31;;;7.60;100.00
6853;BME280;3465;42.144;24.722;2023-01-23T14:19:04;144800.88;;;7.53;100.00
6853;BME280;3465;42.144;24.722;2023-01-23T14:21:29;144807.09;;;7.55;100.00
6853;BME280;3465;42.144;24.722;2023-01-23T14:23:59;144778.34;;;7.44;100.00
6853;BME280;3465;42.144;24.722;2023-01-23T14:26:33;144778.34;;;7.44;100.00
6853;BME280;3465;42.144;24.722;2023-01-23T14:29:03;144803.34;;;7.54;100.00
6853;BME280;3465;42.144;24.722;2023-01-23T14:31:34;144798.34;;;7.52;100.00
6853;BME280;3465;42.144;24.722;2023-01-23T14:34:06;144782.09;;;7.45;100.00
6853;BME280;3465;42.144;24.722;2023-01-23T14:36:45;144778.34;;;7.44;100.00
6853;BME280;3465;42.144;24.722;2023-01-23T14:39:16;144772.13;;;7.41;100.00
6853;BME280;3465;42.144;24.722;2023-01-23T14:41:42;144717.22;;;7.19;100.00
6853;BME280;3465;42.144;24.722;2023-01-23T14:44:42;144764.66;;;7.38;100.00
6853;BME280;3465;42.144;24.722;2023-01-23T14:47:16;144767.13;;;7.39;100.00
6853;BME280;3465;42.144;24.722;2023-01-23T14:49:43;144768.38;;;7.40;100.00
6853;BME280;3465;42.144;24.722;2023-01-23T14:52:23;144745.94;;;7.31;100.00
6853;BME280;3465;42.144;24.722;2023-01-23T14:54:49;144747.16;;;7.31;100.00
6853;BME280;3465;42.144;24.722;2023-01-23T14:57:14;144762.13;;;7.37;100.00
6853;BME280;3465;42.144;24.722;2023-01-23T14:59:41;144763.38;;;7.38;100.00
6853;BME280;3465;42.144;24.722;2023-01-23T15:02:30;144768.38;;;7.40;100.00
6853;BME280;3465;42.144;24.722;2023-01-23T15:05:26;144767.13;;;7.39;100.00
6853;BME280;3465;42.144;24.722;2023-01-23T15:08:20;144772.13;;;7.41;100.00
6853;BME280;3465;42.144;24.722;2023-01-23T15:10:49;144732.19;;;7.25;100.00
6853;BME280;3465;42.144;24.722;2023-01-23T15:13:32;144744.66;;;7.30;100.00
6853;BME280;3465;42.144;24.722;2023-01-23T15:16:02;144753.41;;;7.34;100.00
6853;BME280;3465;42.144;24.722;2023-01-23T15:18:33;144748.41;;;7.32;100.00